X  Sluiten METAR luchtvaart weer gegevens      EBBR Brussels Airport
Temperatuur
2°C Temperatuur
0°C Dauwpunt
87% Vochtigheid



Wind
14 KM/U
9 MPH
4 M/S
8 KTS



190°
Zuid
Huidig weer

Helder Helder
Luchtdruk 996.92 (hPa) - 29.44 (inHg)
Zicht 6.2 (mijl) - 10 (km)
Vliegveld
Vliegveld code EBBR

Locatie : Brussels Airport
Afstand: 14 (km)

Metar:
EBBR 222120Z 19008KT CAVOK 02/00 Q0997 NOSIG

Tijd: 2021-01-22 22:20 CET